sensor_id;sensor_type;location;lat;lon;timestamp;pressure;altitude;pressure_sealevel;temperature;humidity
74834;BME280;63361;52.384;20.930;2022-10-31T00:01:43;101098.03;;;4.51;100.00
74834;BME280;63361;52.384;20.930;2022-10-31T00:04:09;101089.50;;;4.43;100.00
74834;BME280;63361;52.384;20.930;2022-10-31T00:06:34;101087.47;;;4.38;100.00
74834;BME280;63361;52.384;20.930;2022-10-31T00:09:02;101083.78;;;4.39;100.00
74834;BME280;63361;52.384;20.930;2022-10-31T00:11:28;101092.38;;;4.41;100.00
74834;BME280;63361;52.384;20.930;2022-10-31T00:13:53;101088.78;;;4.29;100.00
74834;BME280;63361;52.384;20.930;2022-10-31T00:16:21;101102.91;;;4.36;100.00
74834;BME280;63361;52.384;20.930;2022-10-31T00:18:48;101095.69;;;4.18;100.00
74834;BME280;63361;52.384;20.930;2022-10-31T00:21:14;101092.28;;;4.11;100.00
74834;BME280;63361;52.384;20.930;2022-10-31T00:23:40;101095.69;;;4.18;100.00
74834;BME280;63361;52.384;20.930;2022-10-31T00:26:05;101086.03;;;4.17;100.00
74834;BME280;63361;52.384;20.930;2022-10-31T00:28:32;101107.81;;;4.21;100.00
74834;BME280;63361;52.384;20.930;2022-10-31T00:31:08;101097.63;;;4.11;100.00
74834;BME280;63361;52.384;20.930;2022-10-31T00:33:35;101105.66;;;4.11;100.00
74834;BME280;63361;52.384;20.930;2022-10-31T00:36:02;101113.94;;;4.03;100.00
74834;BME280;63361;52.384;20.930;2022-10-31T00:38:28;101111.38;;;3.90;100.00
74834;BME280;63361;52.384;20.930;2022-10-31T00:40:53;101099.16;;;3.76;100.00
74834;BME280;63361;52.384;20.930;2022-10-31T00:43:19;101103.88;;;3.80;100.00
74834;BME280;63361;52.384;20.930;2022-10-31T00:45:44;101103.88;;;3.80;100.00
74834;BME280;63361;52.384;20.930;2022-10-31T00:48:10;101121.22;;;3.89;100.00
74834;BME280;63361;52.384;20.930;2022-10-31T00:50:36;101118.53;;;3.96;100.00
74834;BME280;63361;52.384;20.930;2022-10-31T00:53:02;101106.84;;;3.91;100.00
74834;BME280;63361;52.384;20.930;2022-10-31T00:55:27;101117.34;;;3.85;100.00
74834;BME280;63361;52.384;20.930;2022-10-31T00:57:53;101101.84;;;3.76;100.00
74834;BME280;63361;52.384;20.930;2022-10-31T01:00:18;101114.09;;;3.83;100.00
74834;BME280;63361;52.384;20.930;2022-10-31T01:02:44;101108.47;;;3.67;100.00
74834;BME280;63361;52.384;20.930;2022-10-31T01:05:09;101124.44;;;3.73;100.00
74834;BME280;63361;52.384;20.930;2022-10-31T01:07:39;101115.69;;;3.66;100.00
74834;BME280;63361;52.384;20.930;2022-10-31T01:10:05;101117.47;;;3.72;100.00
74834;BME280;63361;52.384;20.930;2022-10-31T01:12:42;101127.28;;;3.78;100.00
74834;BME280;63361;52.384;20.930;2022-10-31T01:15:09;101116.66;;;3.72;100.00
74834;BME280;63361;52.384;20.930;2022-10-31T01:17:35;101107.72;;;3.60;100.00
74834;BME280;63361;52.384;20.930;2022-10-31T01:20:00;101127.59;;;3.64;100.00
74834;BME280;63361;52.384;20.930;2022-10-31T01:22:26;101116.78;;;3.52;100.00
74834;BME280;63361;52.384;20.930;2022-10-31T01:24:51;101116.63;;;3.47;100.00
74834;BME280;63361;52.384;20.930;2022-10-31T01:27:16;101113.88;;;3.60;100.00
74834;BME280;63361;52.384;20.930;2022-10-31T01:29:42;101109.38;;;3.54;100.00
74834;BME280;63361;52.384;20.930;2022-10-31T01:32:07;101083.66;;;3.35;100.00
74834;BME280;63361;52.384;20.930;2022-10-31T01:34:33;101084.25;;;3.37;100.00
74834;BME280;63361;52.384;20.930;2022-10-31T01:36:58;101099.78;;;3.46;100.00
74834;BME280;63361;52.384;20.930;2022-10-31T01:39:23;101089.38;;;3.38;100.00
74834;BME280;63361;52.384;20.930;2022-10-31T01:41:51;101116.97;;;3.57;100.00
74834;BME280;63361;52.384;20.930;2022-10-31T01:46:48;101123.50;;;3.61;100.00
74834;BME280;63361;52.384;20.930;2022-10-31T01:49:23;101127.81;;;3.62;100.00
74834;BME280;63361;52.384;20.930;2022-10-31T01:52:06;101129.69;;;3.55;100.00
74834;BME280;63361;52.384;20.930;2022-10-31T01:54:37;101118.91;;;3.43;100.00
74834;BME280;63361;52.384;20.930;2022-10-31T01:57:05;101123.03;;;3.39;100.00
74834;BME280;63361;52.384;20.930;2022-10-31T01:59:35;101124.94;;;3.32;100.00
74834;BME280;63361;52.384;20.930;2022-10-31T02:02:02;101117.22;;;3.17;100.00
74834;BME280;63361;52.384;20.930;2022-10-31T02:04:29;101124.53;;;3.29;100.00
74834;BME280;63361;52.384;20.930;2022-10-31T02:07:05;101125.47;;;3.41;100.00
74834;BME280;63361;52.384;20.930;2022-10-31T02:09:33;101111.59;;;3.32;100.00
74834;BME280;63361;52.384;20.930;2022-10-31T02:12:00;101109.88;;;3.44;100.00
74834;BME280;63361;52.384;20.930;2022-10-31T02:14:28;101083.91;;;3.27;100.00
74834;BME280;63361;52.384;20.930;2022-10-31T02:16:54;101102.16;;;3.30;100.00
74834;BME280;63361;52.384;20.930;2022-10-31T02:19:29;101102.78;;;3.25;100.00
74834;BME280;63361;52.384;20.930;2022-10-31T02:37:57;101132.66;;;3.40;100.00
74834;BME280;63361;52.384;20.930;2022-10-31T02:43:09;101123.63;;;3.41;100.00
74834;BME280;63361;52.384;20.930;2022-10-31T02:48:50;101132.66;;;3.40;100.00
74834;BME280;63361;52.384;20.930;2022-10-31T02:51:18;101128.22;;;3.28;100.00
74834;BME280;63361;52.384;20.930;2022-10-31T02:53:44;101128.91;;;3.16;100.00
74834;BME280;63361;52.384;20.930;2022-10-31T02:56:18;101127.47;;;3.21;100.00
74834;BME280;63361;52.384;20.930;2022-10-31T02:58:49;101127.84;;;3.24;100.00
74834;BME280;63361;52.384;20.930;2022-10-31T03:04:23;101155.53;;;3.23;100.00
74834;BME280;63361;52.384;20.930;2022-10-31T03:09:24;101161.75;;;3.10;100.00
74834;BME280;63361;52.384;20.930;2022-10-31T03:12:35;101155.88;;;3.02;100.00
74834;BME280;63361;52.384;20.930;2022-10-31T03:15:17;101160.78;;;2.98;100.00
74834;BME280;63361;52.384;20.930;2022-10-31T03:20:36;101157.00;;;2.74;100.00
74834;BME280;63361;52.384;20.930;2022-10-31T03:23:07;101169.44;;;2.87;100.00
74834;BME280;63361;52.384;20.930;2022-10-31T03:25:36;101171.72;;;2.83;100.00
74834;BME280;63361;52.384;20.930;2022-10-31T03:28:04;101156.75;;;2.76;100.00
74834;BME280;63361;52.384;20.930;2022-10-31T03:30:33;101172.75;;;2.82;100.00
74834;BME280;63361;52.384;20.930;2022-10-31T03:33:02;101162.28;;;2.88;100.00
74834;BME280;63361;52.384;20.930;2022-10-31T03:35:30;101176.59;;;3.00;100.00
74834;BME280;63361;52.384;20.930;2022-10-31T03:37:59;101169.81;;;2.97;100.00
74834;BME280;63361;52.384;20.930;2022-10-31T03:40:27;101170.66;;;2.91;100.00
74834;BME280;63361;52.384;20.930;2022-10-31T03:43:03;101178.06;;;2.89;100.00
74834;BME280;63361;52.384;20.930;2022-10-31T03:45:36;101175.00;;;2.79;100.00
74834;BME280;63361;52.384;20.930;2022-10-31T03:48:05;101148.22;;;2.54;100.00
74834;BME280;63361;52.384;20.930;2022-10-31T03:50:38;101173.44;;;2.58;100.00
74834;BME280;63361;52.384;20.930;2022-10-31T03:53:09;101155.84;;;2.44;100.00
74834;BME280;63361;52.384;20.930;2022-10-31T03:55:42;101192.28;;;2.57;100.00
74834;BME280;63361;52.384;20.930;2022-10-31T03:58:20;101184.91;;;2.59;100.00
74834;BME280;63361;52.384;20.930;2022-10-31T04:00:48;101188.97;;;2.68;100.00
74834;BME280;63361;52.384;20.930;2022-10-31T04:03:19;101170.56;;;2.53;100.00
74834;BME280;63361;52.384;20.930;2022-10-31T04:05:49;101165.22;;;2.60;100.00
74834;BME280;63361;52.384;20.930;2022-10-31T04:08:19;101177.50;;;2.74;100.00
74834;BME280;63361;52.384;20.930;2022-10-31T04:10:48;101178.31;;;2.68;100.00
74834;BME280;63361;52.384;20.930;2022-10-31T04:13:17;101177.88;;;2.77;100.00
74834;BME280;63361;52.384;20.930;2022-10-31T04:15:45;101174.19;;;2.78;100.00
74834;BME280;63361;52.384;20.930;2022-10-31T04:18:11;101179.72;;;2.83;100.00
74834;BME280;63361;52.384;20.930;2022-10-31T04:20:39;101190.78;;;2.87;100.00
74834;BME280;63361;52.384;20.930;2022-10-31T04:23:13;101182.34;;;2.97;100.00
74834;BME280;63361;52.384;20.930;2022-10-31T04:25:41;101184.59;;;3.00;100.00
74834;BME280;63361;52.384;20.930;2022-10-31T04:28:06;101175.63;;;2.81;100.00
74834;BME280;63361;52.384;20.930;2022-10-31T04:30:32;101175.66;;;2.74;100.00
74834;BME280;63361;52.384;20.930;2022-10-31T04:32:57;101170.72;;;2.71;100.00
74834;BME280;63361;52.384;20.930;2022-10-31T04:35:22;101173.19;;;2.73;100.00
74834;BME280;63361;52.384;20.930;2022-10-31T04:37:48;101187.91;;;2.89;100.00
74834;BME280;63361;52.384;20.930;2022-10-31T04:40:13;101188.13;;;2.80;100.00
74834;BME280;63361;52.384;20.930;2022-10-31T04:42:38;101180.75;;;2.76;100.00
74834;BME280;63361;52.384;20.930;2022-10-31T04:45:04;101186.44;;;2.93;100.00
74834;BME280;63361;52.384;20.930;2022-10-31T04:47:33;101194.44;;;2.93;100.00
74834;BME280;63361;52.384;20.930;2022-10-31T04:49:58;101147.81;;;2.57;100.00
74834;BME280;63361;52.384;20.930;2022-10-31T04:52:24;101191.78;;;2.93;100.00
74834;BME280;63361;52.384;20.930;2022-10-31T04:54:49;101197.47;;;3.09;100.00
74834;BME280;63361;52.384;20.930;2022-10-31T04:57:14;101207.09;;;3.10;100.00
74834;BME280;63361;52.384;20.930;2022-10-31T04:59:40;101205.50;;;2.96;100.00
74834;BME280;63361;52.384;20.930;2022-10-31T05:02:05;101185.28;;;2.69;100.00
74834;BME280;63361;52.384;20.930;2022-10-31T05:04:30;101207.63;;;2.68;100.00
74834;BME280;63361;52.384;20.930;2022-10-31T05:06:56;101195.16;;;2.55;100.00
74834;BME280;63361;52.384;20.930;2022-10-31T05:09:21;101207.25;;;2.51;100.00
74834;BME280;63361;52.384;20.930;2022-10-31T05:11:46;101189.22;;;2.33;100.00
74834;BME280;63361;52.384;20.930;2022-10-31T05:14:12;101191.47;;;2.50;100.00
74834;BME280;63361;52.384;20.930;2022-10-31T05:16:37;101185.50;;;2.67;100.00
74834;BME280;63361;52.384;20.930;2022-10-31T05:19:02;101183.41;;;2.76;100.00
74834;BME280;63361;52.384;20.930;2022-10-31T05:21:28;101202.19;;;3.14;100.00
74834;BME280;63361;52.384;20.930;2022-10-31T05:23:53;101185.81;;;2.97;100.00
74834;BME280;63361;52.384;20.930;2022-10-31T05:26:18;101212.28;;;3.05;100.00
74834;BME280;63361;52.384;20.930;2022-10-31T05:28:44;101189.16;;;2.86;100.00
74834;BME280;63361;52.384;20.930;2022-10-31T05:31:09;101214.75;;;3.00;100.00
74834;BME280;63361;52.384;20.930;2022-10-31T05:33:34;101209.19;;;3.02;100.00
74834;BME280;63361;52.384;20.930;2022-10-31T05:36:00;101212.03;;;3.07;100.00
74834;BME280;63361;52.384;20.930;2022-10-31T05:38:25;101197.91;;;3.00;100.00
74834;BME280;63361;52.384;20.930;2022-10-31T05:40:54;101194.06;;;2.89;100.00
74834;BME280;63361;52.384;20.930;2022-10-31T05:43:22;101209.00;;;3.03;100.00
74834;BME280;63361;52.384;20.930;2022-10-31T05:45:52;101176.84;;;2.85;100.00
74834;BME280;63361;52.384;20.930;2022-10-31T05:48:17;101212.44;;;3.17;100.00
74834;BME280;63361;52.384;20.930;2022-10-31T05:50:42;101214.44;;;3.22;100.00
74834;BME280;63361;52.384;20.930;2022-10-31T05:53:08;101206.41;;;3.28;100.00
74834;BME280;63361;52.384;20.930;2022-10-31T05:55:33;101213.94;;;3.44;100.00
74834;BME280;63361;52.384;20.930;2022-10-31T05:57:58;101215.72;;;3.57;100.00
74834;BME280;63361;52.384;20.930;2022-10-31T06:00:24;101218.72;;;3.74;100.00
74834;BME280;63361;52.384;20.930;2022-10-31T06:03:00;101179.78;;;3.60;100.00
74834;BME280;63361;52.384;20.930;2022-10-31T06:05:26;101203.53;;;3.99;100.00
74834;BME280;63361;52.384;20.930;2022-10-31T06:07:52;101220.47;;;4.43;100.00
74834;BME280;63361;52.384;20.930;2022-10-31T06:10:18;101226.59;;;4.68;100.00
74834;BME280;63361;52.384;20.930;2022-10-31T06:12:44;101210.19;;;4.83;100.00
74834;BME280;63361;52.384;20.930;2022-10-31T06:15:09;101225.50;;;5.12;100.00
74834;BME280;63361;52.384;20.930;2022-10-31T06:17:36;101230.63;;;5.32;100.00
74834;BME280;63361;52.384;20.930;2022-10-31T06:20:02;101235.44;;;5.90;100.00
74834;BME280;63361;52.384;20.930;2022-10-31T06:22:28;101224.59;;;6.85;100.00
74834;BME280;63361;52.384;20.930;2022-10-31T06:24:53;101229.91;;;7.60;100.00
74834;BME280;63361;52.384;20.930;2022-10-31T06:27:19;101229.31;;;7.29;100.00
74834;BME280;63361;52.384;20.930;2022-10-31T06:29:44;101180.66;;;7.14;100.00
74834;BME280;63361;52.384;20.930;2022-10-31T06:32:13;101207.56;;;7.88;100.00
74834;BME280;63361;52.384;20.930;2022-10-31T06:34:39;101237.81;;;8.40;100.00
74834;BME280;63361;52.384;20.930;2022-10-31T06:37:09;101206.56;;;8.22;100.00
74834;BME280;63361;52.384;20.930;2022-10-31T06:39:35;101203.09;;;7.93;98.70
74834;BME280;63361;52.384;20.930;2022-10-31T06:42:01;101237.31;;;7.98;97.10
74834;BME280;63361;52.384;20.930;2022-10-31T06:44:26;101234.28;;;7.78;97.36
74834;BME280;63361;52.384;20.930;2022-10-31T06:46:52;101243.69;;;7.52;96.05
74834;BME280;63361;52.384;20.930;2022-10-31T06:49:17;101234.78;;;7.23;97.65
74834;BME280;63361;52.384;20.930;2022-10-31T06:51:42;101238.75;;;7.20;99.20
74834;BME280;63361;52.384;20.930;2022-10-31T06:54:08;101247.47;;;7.39;99.53
74834;BME280;63361;52.384;20.930;2022-10-31T06:56:33;101201.09;;;7.15;99.44
74834;BME280;63361;52.384;20.930;2022-10-31T06:58:59;101222.50;;;7.38;98.81
74834;BME280;63361;52.384;20.930;2022-10-31T07:01:24;101229.25;;;7.98;98.89
74834;BME280;63361;52.384;20.930;2022-10-31T07:03:50;101244.16;;;8.67;97.72
74834;BME280;63361;52.384;20.930;2022-10-31T07:06:15;101207.16;;;8.79;96.61
74834;BME280;63361;52.384;20.930;2022-10-31T07:08:40;101238.22;;;9.26;94.82
74834;BME280;63361;52.384;20.930;2022-10-31T07:11:06;101236.56;;;9.03;93.71
74834;BME280;63361;52.384;20.930;2022-10-31T07:13:31;101217.56;;;8.54;93.45
74834;BME280;63361;52.384;20.930;2022-10-31T07:16:03;101214.38;;;8.57;94.46
74834;BME280;63361;52.384;20.930;2022-10-31T07:18:29;101225.88;;;8.69;93.32
74834;BME280;63361;52.384;20.930;2022-10-31T07:20:54;101245.00;;;8.90;93.35
74834;BME280;63361;52.384;20.930;2022-10-31T07:23:20;101236.50;;;8.98;93.21
74834;BME280;63361;52.384;20.930;2022-10-31T07:25:46;101252.88;;;9.13;92.33
74834;BME280;63361;52.384;20.930;2022-10-31T07:28:11;101243.34;;;9.27;92.20
74834;BME280;63361;52.384;20.930;2022-10-31T07:30:37;101250.06;;;10.22;88.09
74834;BME280;63361;52.384;20.930;2022-10-31T07:33:03;101238.59;;;11.31;83.44
74834;BME280;63361;52.384;20.930;2022-10-31T07:35:30;101241.59;;;11.30;81.02
74834;BME280;63361;52.384;20.930;2022-10-31T07:37:55;101239.97;;;11.34;80.18
74834;BME280;63361;52.384;20.930;2022-10-31T07:40:22;101251.91;;;11.43;81.43
74834;BME280;63361;52.384;20.930;2022-10-31T07:42:49;101249.72;;;10.87;83.60
74834;BME280;63361;52.384;20.930;2022-10-31T07:45:20;101249.88;;;11.18;81.25
74834;BME280;63361;52.384;20.930;2022-10-31T07:47:52;101251.06;;;10.85;80.85
74834;BME280;63361;52.384;20.930;2022-10-31T07:50:23;101243.72;;;10.75;83.94
74834;BME280;63361;52.384;20.930;2022-10-31T07:53:04;101250.88;;;11.02;83.17
74834;BME280;63361;52.384;20.930;2022-10-31T07:55:31;101235.31;;;12.42;78.20
74834;BME280;63361;52.384;20.930;2022-10-31T07:58:01;101234.56;;;14.64;71.81
74834;BME280;63361;52.384;20.930;2022-10-31T08:00:27;101248.84;;;16.26;64.81
74834;BME280;63361;52.384;20.930;2022-10-31T08:03:00;101262.28;;;15.85;63.29
74834;BME280;63361;52.384;20.930;2022-10-31T08:05:27;101259.00;;;16.53;61.74
74834;BME280;63361;52.384;20.930;2022-10-31T08:07:52;101251.59;;;15.89;63.33
74834;BME280;63361;52.384;20.930;2022-10-31T08:10:18;101260.03;;;15.68;63.34
74834;BME280;63361;52.384;20.930;2022-10-31T08:12:43;101256.09;;;15.98;62.92
74834;BME280;63361;52.384;20.930;2022-10-31T08:15:09;101223.19;;;16.92;60.91
74834;BME280;63361;52.384;20.930;2022-10-31T08:17:35;101243.41;;;17.96;56.04
74834;BME280;63361;52.384;20.930;2022-10-31T08:20:01;101233.81;;;18.51;55.06
74834;BME280;63361;52.384;20.930;2022-10-31T08:22:26;101246.56;;;18.11;55.11
74834;BME280;63361;52.384;20.930;2022-10-31T08:24:52;101240.19;;;18.16;55.66
74834;BME280;63361;52.384;20.930;2022-10-31T08:27:17;101245.25;;;18.09;56.36
74834;BME280;63361;52.384;20.930;2022-10-31T08:29:43;101253.41;;;19.46;52.40
74834;BME280;63361;52.384;20.930;2022-10-31T08:32:08;101244.00;;;20.30;50.05
74834;BME280;63361;52.384;20.930;2022-10-31T08:34:33;101230.97;;;20.91;48.26
74834;BME280;63361;52.384;20.930;2022-10-31T08:36:59;101249.53;;;20.85;48.60
74834;BME280;63361;52.384;20.930;2022-10-31T08:39:24;101232.69;;;20.49;48.52
74834;BME280;63361;52.384;20.930;2022-10-31T08:41:50;101250.84;;;21.26;48.44
74834;BME280;63361;52.384;20.930;2022-10-31T08:44:15;101226.47;;;22.61;44.34
74834;BME280;63361;52.384;20.930;2022-10-31T08:46:41;101258.34;;;22.95;43.84
74834;BME280;63361;52.384;20.930;2022-10-31T08:49:06;101243.13;;;22.32;45.85
74834;BME280;63361;52.384;20.930;2022-10-31T08:51:31;101249.41;;;24.11;41.20
74834;BME280;63361;52.384;20.930;2022-10-31T08:53:57;101253.41;;;23.49;42.32
74834;BME280;63361;52.384;20.930;2022-10-31T08:56:23;101263.34;;;23.91;42.02
74834;BME280;63361;52.384;20.930;2022-10-31T08:58:48;101254.38;;;24.34;40.98
74834;BME280;63361;52.384;20.930;2022-10-31T09:01:14;101250.31;;;22.90;44.11
74834;BME280;63361;52.384;20.930;2022-10-31T09:03:39;101260.28;;;24.48;40.99
74834;BME280;63361;52.384;20.930;2022-10-31T09:06:05;101226.00;;;24.49;40.10
74834;BME280;63361;52.384;20.930;2022-10-31T09:08:34;101240.38;;;24.70;39.98
74834;BME280;63361;52.384;20.930;2022-10-31T09:11:00;101260.81;;;22.76;44.34
74834;BME280;63361;52.384;20.930;2022-10-31T09:13:25;101234.16;;;23.37;43.43
74834;BME280;63361;52.384;20.930;2022-10-31T09:15:51;101257.41;;;23.76;43.64
74834;BME280;63361;52.384;20.930;2022-10-31T09:18:19;101263.53;;;23.21;44.43
74834;BME280;63361;52.384;20.930;2022-10-31T09:20:46;101259.38;;;19.40;53.44
74834;BME280;63361;52.384;20.930;2022-10-31T09:23:20;101260.50;;;20.85;49.88
74834;BME280;63361;52.384;20.930;2022-10-31T09:25:47;101253.78;;;20.65;49.99
74834;BME280;63361;52.384;20.930;2022-10-31T09:28:16;101254.59;;;21.51;47.99
74834;BME280;63361;52.384;20.930;2022-10-31T09:30:45;101252.84;;;20.53;49.37
74834;BME280;63361;52.384;20.930;2022-10-31T09:33:11;101263.97;;;20.22;50.78
74834;BME280;63361;52.384;20.930;2022-10-31T09:35:38;101252.03;;;19.66;52.40
74834;BME280;63361;52.384;20.930;2022-10-31T09:38:05;101265.06;;;22.40;46.24
74834;BME280;63361;52.384;20.930;2022-10-31T09:40:39;101271.16;;;21.63;47.10
74834;BME280;63361;52.384;20.930;2022-10-31T09:45:56;101255.03;;;20.85;47.49
74834;BME280;63361;52.384;20.930;2022-10-31T09:51:29;101257.53;;;19.83;52.32
74834;BME280;63361;52.384;20.930;2022-10-31T09:54:05;101261.59;;;21.69;47.04
74834;BME280;63361;52.384;20.930;2022-10-31T09:56:33;101258.25;;;20.79;48.43
74834;BME280;63361;52.384;20.930;2022-10-31T09:59:01;101259.97;;;19.28;52.64
74834;BME280;63361;52.384;20.930;2022-10-31T10:01:50;101257.56;;;21.87;47.66
74834;BME280;63361;52.384;20.930;2022-10-31T10:04:53;101250.09;;;21.46;47.31
74834;BME280;63361;52.384;20.930;2022-10-31T10:07:34;101250.25;;;19.61;51.64
74834;BME280;63361;52.384;20.930;2022-10-31T10:10:05;101247.56;;;21.62;47.15
74834;BME280;63361;52.384;20.930;2022-10-31T10:18:17;101248.00;;;20.58;48.84
74834;BME280;63361;52.384;20.930;2022-10-31T10:21:13;101248.16;;;21.88;46.19
74834;BME280;63361;52.384;20.930;2022-10-31T10:23:52;101246.47;;;21.54;46.48
74834;BME280;63361;52.384;20.930;2022-10-31T10:26:20;101245.59;;;20.48;48.83
74834;BME280;63361;52.384;20.930;2022-10-31T10:28:56;101248.97;;;19.76;51.87
74834;BME280;63361;52.384;20.930;2022-10-31T10:31:29;101231.47;;;21.14;47.68
74834;BME280;63361;52.384;20.930;2022-10-31T10:34:02;101205.91;;;21.30;46.12
74834;BME280;63361;52.384;20.930;2022-10-31T10:37:03;101241.38;;;20.51;48.13
74834;BME280;63361;52.384;20.930;2022-10-31T10:39:36;101222.06;;;20.39;47.82
74834;BME280;63361;52.384;20.930;2022-10-31T10:42:15;101234.25;;;21.43;47.03
74834;BME280;63361;52.384;20.930;2022-10-31T10:45:00;101237.44;;;22.49;43.67
74834;BME280;63361;52.384;20.930;2022-10-31T10:47:57;101230.28;;;22.69;44.01
74834;BME280;63361;52.384;20.930;2022-10-31T10:50:32;101235.28;;;23.00;42.01
74834;BME280;63361;52.384;20.930;2022-10-31T10:53:34;101229.78;;;21.00;46.02
74834;BME280;63361;52.384;20.930;2022-10-31T10:58:58;101236.13;;;22.67;42.86
74834;BME280;63361;52.384;20.930;2022-10-31T11:01:24;101226.97;;;22.75;43.10
74834;BME280;63361;52.384;20.930;2022-10-31T11:03:50;101227.69;;;21.35;46.10
74834;BME280;63361;52.384;20.930;2022-10-31T11:06:21;101234.06;;;21.19;46.66
74834;BME280;63361;52.384;20.930;2022-10-31T11:08:50;101223.06;;;22.31;44.14
74834;BME280;63361;52.384;20.930;2022-10-31T11:11:26;101202.31;;;22.01;44.61
74834;BME280;63361;52.384;20.930;2022-10-31T11:14:02;101211.69;;;21.37;45.52
74834;BME280;63361;52.384;20.930;2022-10-31T11:16:32;101215.53;;;20.69;48.00
74834;BME280;63361;52.384;20.930;2022-10-31T11:19:07;101224.41;;;20.66;48.37
74834;BME280;63361;52.384;20.930;2022-10-31T11:21:37;101208.94;;;20.61;48.70
74834;BME280;63361;52.384;20.930;2022-10-31T11:26:35;101209.28;;;20.98;48.14
74834;BME280;63361;52.384;20.930;2022-10-31T11:29:03;101215.50;;;21.87;46.64
74834;BME280;63361;52.384;20.930;2022-10-31T11:31:29;101228.56;;;21.19;47.44
74834;BME280;63361;52.384;20.930;2022-10-31T11:34:03;101226.97;;;21.09;48.44
74834;BME280;63361;52.384;20.930;2022-10-31T11:36:33;101216.00;;;21.09;48.34
74834;BME280;63361;52.384;20.930;2022-10-31T11:39:02;101223.00;;;21.36;47.94
74834;BME280;63361;52.384;20.930;2022-10-31T11:41:31;101208.75;;;20.75;50.14
74834;BME280;63361;52.384;20.930;2022-10-31T11:44:14;101180.59;;;21.16;48.64
74834;BME280;63361;52.384;20.930;2022-10-31T11:46:47;101193.31;;;21.71;47.37
74834;BME280;63361;52.384;20.930;2022-10-31T11:49:18;101208.53;;;21.18;49.54
74834;BME280;63361;52.384;20.930;2022-10-31T11:51:51;101190.81;;;21.66;48.34
74834;BME280;63361;52.384;20.930;2022-10-31T11:54:26;101201.13;;;22.10;46.42
74834;BME280;63361;52.384;20.930;2022-10-31T11:56:53;101202.72;;;21.91;47.07
74834;BME280;63361;52.384;20.930;2022-10-31T11:59:23;101184.00;;;21.42;49.09
74834;BME280;63361;52.384;20.930;2022-10-31T12:01:51;101192.53;;;21.70;47.92
74834;BME280;63361;52.384;20.930;2022-10-31T12:04:17;101194.66;;;21.44;49.14
74834;BME280;63361;52.384;20.930;2022-10-31T12:06:43;101196.84;;;20.54;51.04
74834;BME280;63361;52.384;20.930;2022-10-31T12:12:00;101203.63;;;21.32;50.37
74834;BME280;63361;52.384;20.930;2022-10-31T12:15:01;101209.75;;;22.21;48.05
74834;BME280;63361;52.384;20.930;2022-10-31T12:20:16;101196.72;;;20.42;52.55
74834;BME280;63361;52.384;20.930;2022-10-31T12:25:47;101199.47;;;20.24;53.42
74834;BME280;63361;52.384;20.930;2022-10-31T12:28:39;101184.06;;;19.85;54.10
74834;BME280;63361;52.384;20.930;2022-10-31T12:33:57;101192.91;;;19.82;55.24
74834;BME280;63361;52.384;20.930;2022-10-31T12:45:03;101187.53;;;20.38;53.93
74834;BME280;63361;52.384;20.930;2022-10-31T12:50:25;101177.38;;;20.21;55.16
74834;BME280;63361;52.384;20.930;2022-10-31T12:58:34;101185.56;;;21.52;51.14
74834;BME280;63361;52.384;20.930;2022-10-31T13:01:09;101189.09;;;20.94;53.12
74834;BME280;63361;52.384;20.930;2022-10-31T13:03:49;101185.31;;;20.05;55.53
74834;BME280;63361;52.384;20.930;2022-10-31T13:06:21;101187.38;;;20.17;55.81
74834;BME280;63361;52.384;20.930;2022-10-31T13:08:52;101201.28;;;19.77;57.20
74834;BME280;63361;52.384;20.930;2022-10-31T13:11:23;101193.69;;;19.57;57.71
74834;BME280;63361;52.384;20.930;2022-10-31T13:16:18;101183.91;;;19.08;58.94
74834;BME280;63361;52.384;20.930;2022-10-31T13:18:48;101197.22;;;19.57;58.01
74834;BME280;63361;52.384;20.930;2022-10-31T13:21:23;101186.28;;;19.01;59.78
74834;BME280;63361;52.384;20.930;2022-10-31T13:23:50;101190.38;;;18.72;60.84
74834;BME280;63361;52.384;20.930;2022-10-31T13:29:15;101190.84;;;19.14;59.59
74834;BME280;63361;52.384;20.930;2022-10-31T13:31:42;101185.84;;;19.07;59.93
74834;BME280;63361;52.384;20.930;2022-10-31T13:36:53;101177.75;;;18.93;60.47
74834;BME280;63361;52.384;20.930;2022-10-31T13:45:20;101172.94;;;18.59;61.62
74834;BME280;63361;52.384;20.930;2022-10-31T13:50:42;101166.22;;;17.54;65.58
74834;BME280;63361;52.384;20.930;2022-10-31T13:53:18;101170.44;;;17.60;65.53
74834;BME280;63361;52.384;20.930;2022-10-31T13:55:46;101158.22;;;17.71;65.38
74834;BME280;63361;52.384;20.930;2022-10-31T13:58:28;101174.31;;;17.45;66.06
74834;BME280;63361;52.384;20.930;2022-10-31T14:00:59;101165.88;;;17.19;67.48
74834;BME280;63361;52.384;20.930;2022-10-31T14:03:26;101156.38;;;17.17;67.60
74834;BME280;63361;52.384;20.930;2022-10-31T14:05:54;101159.44;;;16.74;68.33
74834;BME280;63361;52.384;20.930;2022-10-31T14:08:22;101170.88;;;16.44;70.39
74834;BME280;63361;52.384;20.930;2022-10-31T14:10:51;101176.34;;;16.11;71.43
74834;BME280;63361;52.384;20.930;2022-10-31T14:13:38;101164.97;;;15.91;71.48
74834;BME280;63361;52.384;20.930;2022-10-31T14:16:29;101175.09;;;15.71;73.71
74834;BME280;63361;52.384;20.930;2022-10-31T14:19:06;101171.88;;;15.45;74.51
74834;BME280;63361;52.384;20.930;2022-10-31T14:21:41;101168.13;;;15.23;75.70
74834;BME280;63361;52.384;20.930;2022-10-31T14:27:03;101182.94;;;15.11;76.65
74834;BME280;63361;52.384;20.930;2022-10-31T14:29:30;101168.00;;;14.85;77.77